createdAt,value
2022-08-05T00:00:50.298Z,6.50
2022-08-05T00:03:17.527Z,6.03
2022-08-05T00:06:05.469Z,5.88
2022-08-05T00:08:34.773Z,5.50
2022-08-05T00:11:07.537Z,5.95
2022-08-05T00:13:53.024Z,5.53
2022-08-05T00:16:35.626Z,5.55
2022-08-05T00:19:04.281Z,5.65
2022-08-05T00:21:31.222Z,6.35
2022-08-05T00:24:10.169Z,7.70
2022-08-05T00:26:38.916Z,7.55
2022-08-05T00:29:17.846Z,7.65
2022-08-05T00:32:10.186Z,7.40
2022-08-05T00:34:54.424Z,8.10
2022-08-05T00:37:20.076Z,7.68
2022-08-05T00:39:57.828Z,7.20
2022-08-05T00:42:38.088Z,7.18
2022-08-05T00:45:08.701Z,8.23
2022-08-05T00:47:56.249Z,8.40
2022-08-05T00:50:25.510Z,8.82
2022-08-05T00:52:54.948Z,9.27
2022-08-05T00:55:22.648Z,9.02
2022-08-05T00:57:55.458Z,9.10
2022-08-05T01:00:29.067Z,9.30
2022-08-05T01:02:57.231Z,9.18
2022-08-05T01:05:27.378Z,9.40
2022-08-05T01:08:41.930Z,8.68
2022-08-05T01:10:52.987Z,9.48
2022-08-05T01:13:58.751Z,10.50
2022-08-05T01:16:30.094Z,10.73
2022-08-05T01:19:01.705Z,12.25
2022-08-05T01:21:40.798Z,13.00
2022-08-05T01:24:40.692Z,12.82
2022-08-05T01:27:22.265Z,13.82
2022-08-05T01:29:52.388Z,13.13
2022-08-05T01:32:27.674Z,12.25
2022-08-05T01:34:58.825Z,12.63
2022-08-05T01:37:44.546Z,12.45
2022-08-05T01:40:12.779Z,12.52
2022-08-05T01:42:44.213Z,12.10
2022-08-05T01:45:11.588Z,11.98
2022-08-05T01:47:44.302Z,11.32
2022-08-05T01:50:51.117Z,12.80
2022-08-05T01:53:54.668Z,12.35
2022-08-05T01:56:09.815Z,12.13
2022-08-05T01:58:40.822Z,12.02
2022-08-05T02:01:13.786Z,12.32
2022-08-05T02:03:45.653Z,12.15
2022-08-05T02:06:37.452Z,12.73
2022-08-05T02:09:00.151Z,12.75
2022-08-05T02:11:33.152Z,12.30
2022-08-05T02:14:12.390Z,12.00
2022-08-05T02:16:42.538Z,12.52
2022-08-05T02:19:14.659Z,13.68
2022-08-05T02:21:46.902Z,13.68
2022-08-05T02:24:23.226Z,13.43
2022-08-05T02:26:54.539Z,13.57
2022-08-05T02:29:25.999Z,14.55
2022-08-05T02:32:11.953Z,14.55
2022-08-05T02:34:55.057Z,15.48
2022-08-05T02:37:22.736Z,14.75
2022-08-05T02:39:51.738Z,15.45
2022-08-05T02:42:27.670Z,15.15
2022-08-05T02:44:59.028Z,16.23
2022-08-05T02:47:26.228Z,16.48
2022-08-05T02:50:13.869Z,15.98
2022-08-05T02:52:46.225Z,15.90
2022-08-05T02:55:13.546Z,15.95
2022-08-05T02:58:09.460Z,17.52
2022-08-05T03:00:27.838Z,16.88
2022-08-05T03:02:55.644Z,17.77
2022-08-05T03:06:53.763Z,16.55
2022-08-05T03:08:11.214Z,16.13
2022-08-05T03:10:38.620Z,15.73
2022-08-05T03:13:16.838Z,15.35
2022-08-05T03:15:45.740Z,15.50
2022-08-05T03:18:13.046Z,14.38
2022-08-05T03:20:48.578Z,13.90
2022-08-05T03:23:15.951Z,13.65
2022-08-05T03:26:04.932Z,12.82
2022-08-05T03:28:31.161Z,12.55
2022-08-05T03:30:59.888Z,11.82
2022-08-05T03:33:32.236Z,12.27
2022-08-05T03:36:15.728Z,11.90
2022-08-05T03:38:42.908Z,12.43
2022-08-05T03:41:19.442Z,12.40
2022-08-05T03:44:09.948Z,11.65
2022-08-05T03:46:37.734Z,12.38
2022-08-05T03:49:04.926Z,11.43
2022-08-05T03:52:48.331Z,10.07
2022-08-05T03:55:50.896Z,10.15
2022-08-05T03:57:41.572Z,11.57
2022-08-05T04:00:11.320Z,11.18
2022-08-05T04:02:45.211Z,11.40
2022-08-05T04:05:24.857Z,10.43
2022-08-05T04:07:58.029Z,10.05
2022-08-05T04:10:37.107Z,9.98
2022-08-05T04:13:07.358Z,9.48
2022-08-05T04:15:36.044Z,9.07
2022-08-05T04:18:07.978Z,9.95
2022-08-05T04:20:37.371Z,8.38
2022-08-05T04:23:04.477Z,8.13
2022-08-05T04:25:56.500Z,8.85
2022-08-05T04:28:30.681Z,9.18
2022-08-05T04:31:01.059Z,10.13
2022-08-05T04:33:54.952Z,9.80
2022-08-05T04:36:44.795Z,10.30
2022-08-05T04:39:03.328Z,9.40
2022-08-05T04:41:36.673Z,8.75
2022-08-05T04:44:09.098Z,9.02
2022-08-05T04:46:37.411Z,9.88
2022-08-05T04:49:12.333Z,10.10
2022-08-05T04:51:42.706Z,10.63
2022-08-05T04:54:10.686Z,9.75
2022-08-05T04:56:39.661Z,10.02
2022-08-05T04:59:22.177Z,9.90
2022-08-05T05:02:07.316Z,10.07
2022-08-05T05:04:47.909Z,9.93
2022-08-05T05:07:17.865Z,9.13
2022-08-05T05:09:45.554Z,9.05
2022-08-05T05:12:12.478Z,9.07
2022-08-05T05:14:49.455Z,8.32
2022-08-05T05:17:23.268Z,8.98
2022-08-05T05:22:23.712Z,8.30
2022-08-05T05:24:58.443Z,7.75
2022-08-05T05:27:38.460Z,7.90
2022-08-05T05:30:29.624Z,7.57
2022-08-05T05:32:57.007Z,6.70
2022-08-05T05:35:29.172Z,7.38
2022-08-05T05:38:03.472Z,7.57
2022-08-05T05:40:33.062Z,8.00
2022-08-05T05:43:02.185Z,7.95
2022-08-05T05:45:29.651Z,7.47
2022-08-05T05:48:06.371Z,7.85
2022-08-05T05:50:41.261Z,7.20
2022-08-05T05:53:22.499Z,7.78
2022-08-05T05:55:52.364Z,7.18
2022-08-05T05:58:31.529Z,7.53
2022-08-05T06:01:12.248Z,7.47
2022-08-05T06:04:00.435Z,7.47
2022-08-05T06:06:31.413Z,7.75
2022-08-05T06:09:03.279Z,7.40
2022-08-05T06:11:32.021Z,6.30
2022-08-05T06:14:00.258Z,6.85
2022-08-05T06:16:32.617Z,7.70
2022-08-05T06:19:01.942Z,7.70
2022-08-05T06:21:37.658Z,7.82
2022-08-05T06:24:12.212Z,7.05
2022-08-05T06:26:52.225Z,7.40
2022-08-05T06:29:45.429Z,7.25
2022-08-05T06:32:26.302Z,7.32
2022-08-05T06:34:58.672Z,7.43
2022-08-05T06:37:57.575Z,7.75
2022-08-05T06:40:21.051Z,8.27
2022-08-05T06:42:52.779Z,8.65
2022-08-05T06:45:44.548Z,8.38
2022-08-05T06:48:44.294Z,8.60
2022-08-05T06:50:55.632Z,9.38
2022-08-05T06:53:28.392Z,9.82
2022-08-05T06:55:59.190Z,8.68
2022-08-05T06:58:35.068Z,8.52
2022-08-05T07:01:04.859Z,8.23
2022-08-05T07:03:33.226Z,8.23
2022-08-05T07:06:06.223Z,8.35
2022-08-05T07:08:47.146Z,8.05
2022-08-05T07:11:16.046Z,8.20
2022-08-05T07:14:02.463Z,8.35
2022-08-05T07:18:00.932Z,8.65
2022-08-05T07:22:28.346Z,8.95
2022-08-05T07:24:58.407Z,9.23
2022-08-05T07:27:27.775Z,9.82
2022-08-05T07:30:24.230Z,9.73
2022-08-05T07:32:57.573Z,10.15
2022-08-05T07:36:05.158Z,9.95
2022-08-05T07:38:12.297Z,8.93
2022-08-05T07:41:00.280Z,11.02
2022-08-05T07:43:31.658Z,12.27
2022-08-05T07:46:01.893Z,12.80
2022-08-05T07:49:00.426Z,14.82
2022-08-05T07:51:23.742Z,16.85
2022-08-05T07:54:03.689Z,13.13
2022-08-05T07:57:00.836Z,10.82
2022-08-05T07:59:17.841Z,15.48
2022-08-05T08:01:52.212Z,17.50
2022-08-05T08:04:34.430Z,18.35
2022-08-05T08:07:07.328Z,17.15
2022-08-05T08:09:35.094Z,18.20
2022-08-05T08:12:12.486Z,17.20
2022-08-05T08:14:47.151Z,19.17
2022-08-05T08:17:21.237Z,17.40
2022-08-05T08:20:22.791Z,18.05
2022-08-05T08:22:35.906Z,20.35
2022-08-05T08:25:03.907Z,22.15
2022-08-05T08:27:45.255Z,21.38
2022-08-05T08:30:29.858Z,23.40
2022-08-05T08:33:13.931Z,22.17
2022-08-05T08:35:52.316Z,23.02
2022-08-05T08:38:35.308Z,22.63
2022-08-05T08:41:08.661Z,23.90
2022-08-05T08:45:24.724Z,24.52
2022-08-05T08:46:26.042Z,22.67
2022-08-05T08:49:07.935Z,22.20
2022-08-05T08:52:04.275Z,20.13
2022-08-05T08:54:31.143Z,20.33
2022-08-05T08:56:59.710Z,21.25
2022-08-05T08:59:27.757Z,21.83
2022-08-05T09:02:02.262Z,21.55
2022-08-05T09:04:30.299Z,24.23
2022-08-05T09:06:58.458Z,22.88
2022-08-05T09:09:34.812Z,22.63
2022-08-05T09:12:15.284Z,23.40
2022-08-05T09:14:56.576Z,22.65
2022-08-05T09:17:40.658Z,22.05
2022-08-05T09:20:11.533Z,20.13
2022-08-05T09:23:18.598Z,19.48
2022-08-05T09:26:00.972Z,17.70
2022-08-05T09:28:33.544Z,16.90
2022-08-05T09:31:22.637Z,15.80
2022-08-05T09:34:01.359Z,14.20
2022-08-05T09:36:54.106Z,13.10
2022-08-05T09:39:39.393Z,13.40
2022-08-05T09:42:17.520Z,12.05
2022-08-05T09:44:52.921Z,11.85
2022-08-05T09:47:28.631Z,12.27
2022-08-05T09:50:13.796Z,11.73
2022-08-05T09:52:45.866Z,11.75
2022-08-05T09:55:57.384Z,10.65
2022-08-05T09:58:00.396Z,10.00
2022-08-05T10:00:30.488Z,8.70
2022-08-05T10:02:57.995Z,8.00
2022-08-05T10:05:27.892Z,8.68
2022-08-05T10:08:36.745Z,9.60
2022-08-05T10:10:44.153Z,9.85
2022-08-05T10:13:11.656Z,12.00
2022-08-05T10:15:42.131Z,11.38
2022-08-05T10:18:12.293Z,10.07
2022-08-05T10:20:44.313Z,10.98
2022-08-05T10:23:34.562Z,9.38
2022-08-05T10:26:14.548Z,9.25
2022-08-05T10:28:43.943Z,8.70
2022-08-05T10:32:51.844Z,8.38
2022-08-05T10:34:00.869Z,7.97
2022-08-05T10:36:28.157Z,8.60
2022-08-05T10:39:01.353Z,5.50
2022-08-05T10:42:00.885Z,6.32
2022-08-05T10:44:28.804Z,7.63
2022-08-05T10:46:57.364Z,9.70
2022-08-05T10:49:27.024Z,9.02
2022-08-05T10:52:02.386Z,7.38
2022-08-05T10:54:46.869Z,7.28
2022-08-05T10:57:32.367Z,6.07
2022-08-05T11:00:55.347Z,5.35
2022-08-05T11:04:08.961Z,5.80
2022-08-05T11:07:01.897Z,5.82
2022-08-05T11:09:46.079Z,4.78
2022-08-05T11:12:41.302Z,4.82
2022-08-05T11:15:20.677Z,4.57
2022-08-05T11:18:07.390Z,3.80
2022-08-05T11:20:44.056Z,3.53
2022-08-05T11:23:33.303Z,3.35
2022-08-05T11:26:29.085Z,3.65
2022-08-05T11:29:11.513Z,3.30
2022-08-05T11:31:54.040Z,3.92
2022-08-05T11:34:37.815Z,3.72
2022-08-05T11:37:06.151Z,3.60
2022-08-05T11:40:00.211Z,3.25
2022-08-05T11:42:40.240Z,3.05
2022-08-05T11:45:23.449Z,2.80
2022-08-05T11:47:55.380Z,3.05
2022-08-05T11:50:22.933Z,2.92
2022-08-05T11:52:53.171Z,3.17
2022-08-05T11:55:21.561Z,3.00
2022-08-05T11:58:10.796Z,3.65
2022-08-05T12:00:41.213Z,3.70
2022-08-05T12:03:31.750Z,3.40
2022-08-05T12:06:06.569Z,3.78
2022-08-05T12:08:51.216Z,4.22
2022-08-05T12:11:40.461Z,4.53
2022-08-05T12:14:10.354Z,4.20
2022-08-05T12:16:39.866Z,4.63
2022-08-05T12:19:08.669Z,6.57
2022-08-05T12:21:42.385Z,5.32
2022-08-05T12:24:17.664Z,4.72
2022-08-05T12:26:52.998Z,5.28
2022-08-05T12:29:22.825Z,4.97
2022-08-05T12:31:53.198Z,4.13
2022-08-05T12:34:23.707Z,4.65
2022-08-05T12:36:53.816Z,4.88
2022-08-05T12:39:21.948Z,4.43
2022-08-05T12:41:51.071Z,5.28
2022-08-05T12:44:33.122Z,5.18
2022-08-05T12:47:02.163Z,5.15
2022-08-05T12:50:03.065Z,5.35
2022-08-05T12:52:35.364Z,5.13
2022-08-05T12:55:26.841Z,5.65
2022-08-05T12:58:48.592Z,5.38
2022-08-05T13:02:03.020Z,5.18
2022-08-05T13:03:42.289Z,5.50
2022-08-05T13:06:16.152Z,5.25
2022-08-05T13:08:52.300Z,4.93
2022-08-05T13:11:47.058Z,4.35
2022-08-05T13:14:20.342Z,3.85
2022-08-05T13:16:56.629Z,4.53
2022-08-05T13:19:52.031Z,4.07
2022-08-05T13:22:15.216Z,3.38
2022-08-05T13:24:58.096Z,3.63
2022-08-05T13:27:37.938Z,3.80
2022-08-05T13:30:35.275Z,3.17
2022-08-05T13:33:01.104Z,3.53
2022-08-05T13:35:47.352Z,2.78
2022-08-05T13:38:28.453Z,3.22
2022-08-05T13:40:59.851Z,2.78
2022-08-05T13:43:45.098Z,2.30
2022-08-05T13:46:14.715Z,4.38
2022-08-05T13:48:58.155Z,2.10
2022-08-05T13:51:40.253Z,2.30
2022-08-05T13:54:11.761Z,2.83
2022-08-05T13:56:45.137Z,2.28
2022-08-05T13:59:21.384Z,2.95
2022-08-05T14:01:58.116Z,2.47
2022-08-05T14:04:51.445Z,2.75
2022-08-05T14:07:25.498Z,2.35
2022-08-05T14:10:19.176Z,3.15
2022-08-05T14:12:55.665Z,2.70
2022-08-05T14:16:05.261Z,2.53
2022-08-05T14:18:17.668Z,3.05
2022-08-05T14:20:54.612Z,3.20
2022-08-05T14:23:25.423Z,2.70
2022-08-05T14:25:58.773Z,2.50
2022-08-05T14:28:28.133Z,2.47
2022-08-05T14:30:56.768Z,2.60
2022-08-05T14:33:24.233Z,1.88
2022-08-05T14:35:54.008Z,3.03
2022-08-05T14:38:31.808Z,2.38
2022-08-05T14:41:00.630Z,1.88
2022-08-05T14:43:59.502Z,2.25
2022-08-05T14:46:14.641Z,2.03
2022-08-05T14:48:41.709Z,2.80
2022-08-05T14:51:09.577Z,2.35
2022-08-05T14:53:44.202Z,2.33
2022-08-05T14:56:13.381Z,2.58
2022-08-05T14:58:47.743Z,3.38
2022-08-05T15:01:47.118Z,2.70
2022-08-05T15:04:20.431Z,2.47
2022-08-05T15:06:49.777Z,2.65
2022-08-05T15:09:52.657Z,2.75
2022-08-05T15:12:16.912Z,2.47
2022-08-05T15:14:49.940Z,2.40
2022-08-05T15:17:45.656Z,2.35
2022-08-05T15:20:18.320Z,3.03
2022-08-05T15:22:52.082Z,2.67
2022-08-05T15:25:23.512Z,2.40
2022-08-05T15:28:07.577Z,2.25
2022-08-05T15:30:37.094Z,2.55
2022-08-05T15:33:05.518Z,2.75
2022-08-05T15:35:35.988Z,2.40
2022-08-05T15:38:33.159Z,2.17
2022-08-05T15:41:21.403Z,3.00
2022-08-05T15:43:46.934Z,2.80
2022-08-05T15:46:14.353Z,2.80
2022-08-05T15:48:52.459Z,3.10
2022-08-05T15:52:13.131Z,2.72
2022-08-05T15:54:16.278Z,2.53
2022-08-05T15:56:43.686Z,2.72
2022-08-05T15:59:21.819Z,2.35
2022-08-05T16:01:52.914Z,1.90
2022-08-05T16:04:25.437Z,1.98
2022-08-05T16:06:56.909Z,2.15
2022-08-05T16:09:25.391Z,2.17
2022-08-05T16:11:53.841Z,2.33
2022-08-05T16:14:22.344Z,2.45
2022-08-05T16:16:49.618Z,1.95
2022-08-05T16:19:19.197Z,1.60
2022-08-05T16:22:04.066Z,1.35
2022-08-05T16:24:39.555Z,1.67
2022-08-05T16:27:08.089Z,7.20
2022-08-05T16:29:37.361Z,1.65
2022-08-05T16:32:09.823Z,2.40
2022-08-05T16:34:42.672Z,3.33
2022-08-05T16:38:02.871Z,1.52
2022-08-05T16:40:06.282Z,1.60
2022-08-05T16:42:35.305Z,1.35
2022-08-05T16:46:02.874Z,1.67
2022-08-05T16:47:54.166Z,1.20
2022-08-05T16:50:22.871Z,1.70
2022-08-05T16:52:49.780Z,1.45
2022-08-05T16:55:16.962Z,1.20
2022-08-05T16:57:59.951Z,1.45
2022-08-05T17:00:34.576Z,1.20
2022-08-05T17:03:15.124Z,1.25
2022-08-05T17:05:42.886Z,1.10
2022-08-05T17:08:10.216Z,1.42
2022-08-05T17:10:40.316Z,1.30
2022-08-05T17:13:17.179Z,1.25
2022-08-05T17:15:52.905Z,1.40
2022-08-05T17:18:34.589Z,1.30
2022-08-05T17:21:01.942Z,1.50
2022-08-05T17:24:03.270Z,2.25
2022-08-05T17:26:18.578Z,1.48
2022-08-05T17:28:47.249Z,1.25
2022-08-05T17:31:24.065Z,1.30
2022-08-05T17:34:09.741Z,1.52
2022-08-05T17:36:40.569Z,1.20
2022-08-05T17:39:24.112Z,1.73
2022-08-05T17:42:18.209Z,1.20
2022-08-05T17:44:41.551Z,1.42
2022-08-05T17:47:22.027Z,1.58
2022-08-05T17:50:00.053Z,0.90
2022-08-05T17:52:53.282Z,1.00
2022-08-05T17:55:34.418Z,1.27
2022-08-05T17:58:06.921Z,1.15
2022-08-05T18:00:34.800Z,0.88
2022-08-05T18:03:02.440Z,1.10
2022-08-05T18:05:35.545Z,0.82
2022-08-05T18:08:03.532Z,0.57
2022-08-05T18:10:32.252Z,0.93
2022-08-05T18:13:01.926Z,1.00
2022-08-05T18:15:34.130Z,0.75
2022-08-05T18:18:05.683Z,0.85
2022-08-05T18:20:38.177Z,0.75
2022-08-05T18:23:11.432Z,0.60
2022-08-05T18:25:45.207Z,0.65
2022-08-05T18:28:16.242Z,0.90
2022-08-05T18:30:45.359Z,0.52
2022-08-05T18:33:13.634Z,0.85
2022-08-05T18:35:59.874Z,0.80
2022-08-05T18:38:28.906Z,0.52
2022-08-05T18:41:57.139Z,0.80
2022-08-05T18:43:48.682Z,0.70
2022-08-05T18:46:19.787Z,0.80
2022-08-05T18:48:53.947Z,1.08
2022-08-05T18:52:06.089Z,0.63
2022-08-05T18:54:28.502Z,1.00
2022-08-05T18:57:02.155Z,0.70
2022-08-05T18:59:44.082Z,0.70
2022-08-05T19:02:27.791Z,0.70
2022-08-05T19:05:02.982Z,0.80
2022-08-05T19:07:48.182Z,0.85
2022-08-05T19:10:16.289Z,0.90
2022-08-05T19:12:46.238Z,0.77
2022-08-05T19:15:57.844Z,0.88
2022-08-05T19:18:09.739Z,1.20
2022-08-05T19:20:41.833Z,1.10
2022-08-05T19:24:03.604Z,1.52
2022-08-05T19:26:02.888Z,0.90
2022-08-05T19:28:31.155Z,1.65
2022-08-05T19:31:00.959Z,0.90
2022-08-05T19:33:35.387Z,1.17
2022-08-05T19:36:03.788Z,1.02
2022-08-05T19:38:36.765Z,1.95
2022-08-05T19:41:09.031Z,0.90
2022-08-05T19:44:06.429Z,1.20
2022-08-05T19:46:30.376Z,0.98
2022-08-05T19:49:03.274Z,0.88
2022-08-05T19:54:26.760Z,0.90
2022-08-05T19:56:59.275Z,1.13
2022-08-05T19:59:55.552Z,0.98
2022-08-05T20:02:14.894Z,1.20
2022-08-05T20:04:46.101Z,1.00
2022-08-05T20:07:15.295Z,0.93
2022-08-05T20:09:53.619Z,0.82
2022-08-05T20:12:23.491Z,1.50
2022-08-05T20:14:52.439Z,0.70
2022-08-05T20:17:23.632Z,0.98
2022-08-05T20:19:56.965Z,1.02
2022-08-05T20:22:26.719Z,1.00
2022-08-05T20:24:55.395Z,0.90
2022-08-05T20:27:26.778Z,2.25
2022-08-05T20:29:58.347Z,1.05
2022-08-05T20:32:26.789Z,0.85
2022-08-05T20:34:54.040Z,1.00
2022-08-05T20:38:07.771Z,1.20
2022-08-05T20:40:09.047Z,0.90
2022-08-05T20:42:36.087Z,1.30
2022-08-05T20:45:05.343Z,0.90
2022-08-05T20:47:32.855Z,1.10
2022-08-05T20:50:02.094Z,1.00
2022-08-05T20:52:29.866Z,1.20
2022-08-05T20:55:54.374Z,1.10
2022-08-05T20:57:45.006Z,1.23
2022-08-05T21:00:41.640Z,1.15
2022-08-05T21:03:06.381Z,1.25
2022-08-05T21:05:48.361Z,1.00
2022-08-05T21:08:26.652Z,1.00
2022-08-05T21:11:09.323Z,1.20
2022-08-05T21:13:48.276Z,1.17
2022-08-05T21:16:29.833Z,1.50
2022-08-05T21:19:01.189Z,1.25
2022-08-05T21:21:43.800Z,1.20
2022-08-05T21:24:13.474Z,1.10
2022-08-05T21:26:45.011Z,1.20
2022-08-05T21:29:16.685Z,1.27
2022-08-05T21:31:44.008Z,1.55
2022-08-05T21:34:12.268Z,1.20
2022-08-05T21:36:39.753Z,1.30
2022-08-05T21:39:10.178Z,1.30
2022-08-05T21:41:42.087Z,1.25
2022-08-05T21:44:26.859Z,1.13
2022-08-05T21:46:54.215Z,2.17
2022-08-05T21:49:48.103Z,1.35
2022-08-05T21:52:22.182Z,6.50
2022-08-05T21:54:55.624Z,1.60
2022-08-05T21:57:31.483Z,1.52
2022-08-05T22:00:05.764Z,1.30
2022-08-05T22:02:33.942Z,1.50
2022-08-05T22:05:01.338Z,1.48
2022-08-05T22:07:40.159Z,1.48
2022-08-05T22:10:17.100Z,1.50
2022-08-05T22:12:50.869Z,1.65
2022-08-05T22:16:01.622Z,1.90
2022-08-05T22:18:06.677Z,1.42
2022-08-05T22:20:39.193Z,1.70
2022-08-05T22:23:25.396Z,1.50
2022-08-05T22:26:31.113Z,1.75
2022-08-05T22:28:58.183Z,1.90
2022-08-05T22:31:29.915Z,1.70
2022-08-05T22:34:00.887Z,1.20
2022-08-05T22:36:29.069Z,1.35
2022-08-05T22:38:56.712Z,1.42
2022-08-05T22:41:26.476Z,1.55
2022-08-05T22:44:11.880Z,1.45
2022-08-05T22:46:40.651Z,1.42
2022-08-05T22:49:23.171Z,1.35
2022-08-05T22:52:05.586Z,1.50
2022-08-05T22:54:34.007Z,1.52
2022-08-05T22:57:00.977Z,1.10
2022-08-05T22:59:46.294Z,1.60
2022-08-05T23:02:17.804Z,1.25
2022-08-05T23:04:51.251Z,1.63
2022-08-05T23:07:21.925Z,1.35
2022-08-05T23:09:57.934Z,1.80
2022-08-05T23:12:32.451Z,1.08
2022-08-05T23:15:03.077Z,1.60
2022-08-05T23:17:34.284Z,1.27
2022-08-05T23:20:10.466Z,1.52
2022-08-05T23:22:47.850Z,1.20
2022-08-05T23:25:17.130Z,1.17
2022-08-05T23:28:06.970Z,1.23
2022-08-05T23:30:39.700Z,1.83
2022-08-05T23:33:22.377Z,1.30
2022-08-05T23:35:56.188Z,1.45
2022-08-05T23:38:24.480Z,1.52
2022-08-05T23:40:52.697Z,1.45
2022-08-05T23:43:25.120Z,1.48
2022-08-05T23:46:20.829Z,1.70
2022-08-05T23:49:00.720Z,2.22
2022-08-05T23:51:52.491Z,1.27
2022-08-05T23:54:26.619Z,1.92
2022-08-05T23:57:03.880Z,1.17
